Soaring Guidance
Issued by NWS Reno, NV

Home | Current Version | Previous Version | Text Only | Print | Product List | Glossary On
Versions: 1 2 3 4 5 6 7 8 9 10 11 12 13 14 15
000
UXUS97 KREV 261346
SRGREV

SOARING FORECAST
NATIONAL WEATHER SERVICE - RENO NV
700 AM PDT SUN APR 26 2015

THIS SOARING FORECAST IS FOR THE EASTERN SIERRA AND WESTERN NEVADA
WITH SPECIFIC INDICES FOR THE GREATER RENO AREA.

THIS FORECAST IS NOT UPDATED.

FOR CURRENT FLIGHT CONDITIONS...FORECASTS...AND ADVISORIES...ACCESS
YOUR LOCAL BRIEFING OUTLET OR FLIGHT SERVICE STATION.

*******************************************************************
LOCAL INDICES FOR RENO:                   TODAY     YESTERDAY
MAXIMUM TEMPERATURE AT RENO...(DEG F)...     63
TRIGGER TEMPERATURE...........(DEG F)...     44          46
   EXCEEDED YESTERDAY BY 19Z
MAXIMUM ALTITUDE..............(FT MSL)..  13200       11500
SOARING INDEX.................(FPM).....    546         525
FORECASTED K-INDEX.........VALID 18Z....     13          31
FORECASTED K-INDEX.........VALID 00Z....     19          28
FORECASTED LIFTED INDEX....VALID 18Z....      9           0
FORECASTED LIFTED INDEX....VALID 00Z....      9           2

AFTERNOON WINDS ALOFT FORECAST
MSL (FT) WIND/TEMP
9000  3410/+01
10000 3419/+00
12000 3638/-03
14000 3440/-06
16000 3442/-09
18000 3448/-12
24000 3452/-21
30000 3354/-39
34000 3362/-50
39000 3473/-60

SLIDE MOUNTAIN DATA:
 SLD HR 1220 M 21/19/3405/M  /SLIDE MTN UNOFFICIAL OBSERVATION

RENO TAF FORECAST:
KRNO 261120Z 2612/2712 VRB04KT P6SM FEW150 SCT200
     FM261800 35011KT P6SM SCT250
     FM270100 06006KT P6SM SCT250
     FM270700 VRB04KT P6SM SCT250

CARSON CITY TAF FORECAST:
KCXP 261120Z 2612/2712 VRB04KT P6SM SCT080 BKN120
     FM261700 03010KT P6SM SCT250
     FM262300 08011G16KT P6SM SCT250
     FM270700 VRB04KT P6SM SCT250

OUTLOOK FOR THE RENO-CARSON CITY-MINDEN AREA:
.MONDAY...SUNNY. HIGHS 69 TO 74. LIGHT WINDS BECOMING EAST AROUND
10 MPH IN THE AFTERNOON.

SUNRISE AND SUNSET
APRIL 26 2015.........SUNRISE   607 AM PDT   SUNSET   748 PM PDT
APRIL 27 2015.........SUNRISE   605 AM PDT   SUNSET   749 PM PDT



THIS PRODUCT IS ROUTINELY PREPARED BY 700 AM AND IS
DISTRIBUTED TO THE RENO FLIGHT SERVICE STATION AS WELL AS THE
NATIONAL WEATHER SERVICE WORLD WIDE WEB HOMEPAGE AT:
       HTTP://WWW.WEATHER.GOV/RENO






USA.gov is the U.S. government's official web portal to all federal, state and local government web resources and services.